Time;durP1;ratioP1;P1;durP2;ratioP2;P2;SDS_P1;SDS_P2;PMS_P1;PMS_P2;Temp;Humidity;BMP_temperature;BMP_pressure;BME280_temperature;BME280_humidity;BME280_pressure;Samples;Min_cycle;Max_cycle;Signal;HPM_P1;HPM_P2
2023/10/24 07:23:27;;;;;;;7.28;5.40;;;;;;;-145.79;100.00;76902.50;5252388;28;20731;-66
2023/10/24 07:25:58;;;;;;;6.70;5.85;;;;;;;-145.79;100.00;76900.38;5275259;28;20034;-66
2023/10/24 07:28:30;;;;;;;8.10;6.40;;;;;;;-145.79;100.00;76894.03;5224790;28;20034;-67
2023/10/24 07:31:02;;;;;;;6.95;4.82;;;;;;;-145.79;100.00;76896.16;5228464;28;20021;-67
2023/10/24 07:33:33;;;;;;;5.85;5.03;;;;;;;-145.79;100.00;76900.38;5215930;28;20030;-67
2023/10/24 07:36:05;;;;;;;5.95;5.35;;;;;;;-145.79;100.00;76889.78;5263207;28;20098;-65
2023/10/24 07:38:37;;;;;;;8.27;5.05;;;;;;;-145.79;100.00;76881.31;5269380;28;20026;-65
2023/10/24 07:41:08;;;;;;;6.75;5.40;;;;;;;-145.79;100.00;76872.84;5271704;28;20385;-65
2023/10/24 07:43:39;;;;;;;6.53;5.93;;;;;;;-145.79;100.00;76874.94;5286892;28;20020;-67
2023/10/24 07:46:11;;;;;;;6.60;5.60;;;;;;;-145.79;100.00;76860.13;5248061;28;20045;-65
2023/10/24 07:48:42;;;;;;;7.30;6.60;;;;;;;-145.79;100.00;76851.63;5264210;28;20031;-65
2023/10/24 07:51:13;;;;;;;5.50;5.00;;;;;;;-145.79;100.00;76845.28;5251250;28;20477;-65
2023/10/24 07:53:45;;;;;;;5.45;4.90;;;;;;;-145.79;100.00;76847.41;5255002;28;20471;-66
2023/10/24 07:56:16;;;;;;;5.85;5.10;;;;;;;-145.79;100.00;76838.94;5221509;28;20031;-66
2023/10/24 07:58:47;;;;;;;5.70;4.65;;;;;;;-145.79;100.00;76838.94;5242784;28;20022;-65
2023/10/24 08:01:19;;;;;;;5.22;4.32;;;;;;;-145.79;100.00;76817.72;5218979;28;20030;-65
2023/10/24 08:03:50;;;;;;;7.45;5.32;;;;;;;-145.79;100.00;76821.97;5260267;28;20571;-65
2023/10/24 08:06:21;;;;;;;4.93;4.43;;;;;;;-145.79;100.00;76798.66;5232790;28;20034;-65
2023/10/24 08:08:52;;;;;;;7.45;4.47;;;;;;;-145.79;100.00;76781.69;5241815;28;20032;-65
2023/10/24 08:11:24;;;;;;;6.15;4.30;;;;;;;-145.79;100.00;76813.50;5246465;28;20088;-65
2023/10/24 08:13:55;;;;;;;5.22;4.70;;;;;;;-145.79;100.00;76796.53;5240591;28;20037;-65
2023/10/24 08:16:27;;;;;;;5.40;4.72;;;;;;;-145.79;100.00;76802.91;5266961;28;20030;-65
2023/10/24 08:18:58;;;;;;;5.38;4.88;;;;;;;-145.79;100.00;76796.53;5216216;28;20584;-66
2023/10/24 08:21:29;;;;;;;4.75;4.25;;;;;;;-145.79;100.00;76792.31;5213323;28;20129;-64
2023/10/24 08:24:00;;;;;;;7.05;4.20;;;;;;;-145.79;100.00;76792.31;5210597;28;20026;-65
2023/10/24 08:26:32;;;;;;;6.95;4.50;;;;;;;-145.79;100.00;76779.59;5224178;28;20401;-65
2023/10/24 08:29:03;;;;;;;4.93;4.30;;;;;;;-145.79;99.25;76790.19;5266096;28;20489;-65
2023/10/24 08:31:34;;;;;;;4.68;3.90;;;;;;;-145.79;99.46;76783.81;5253697;28;20024;-66
2023/10/24 08:34:06;;;;;;;4.35;3.70;;;;;;;-145.79;99.03;76796.53;5224915;28;20022;-66
2023/10/24 08:36:38;;;;;;;5.63;3.75;;;;;;;-145.79;100.00;76800.78;5239198;28;20028;-66
2023/10/24 08:39:09;;;;;;;5.03;4.50;;;;;;;-145.79;99.63;76798.66;5227339;28;20030;-66
2023/10/24 08:41:47;;;;;;;4.50;4.10;;;;;;;-145.79;98.89;76800.78;5213336;28;20035;-66
2023/10/24 08:44:20;;;;;;;4.68;3.80;;;;;;;-145.79;98.80;76796.53;5217988;28;20054;-66
2023/10/24 08:46:51;;;;;;;5.38;3.45;;;;;;;-145.79;99.92;76781.69;5203269;28;20019;-66
2023/10/24 08:49:23;;;;;;;4.90;3.50;;;;;;;-145.79;98.85;76792.31;5214669;28;20539;-67
2023/10/24 08:51:54;;;;;;;6.05;3.90;;;;;;;-145.79;98.08;76796.53;5230710;28;20469;-66
2023/10/24 08:54:25;;;;;;;7.90;4.35;;;;;;;-145.79;98.17;76796.53;5260212;28;20065;-66
2023/10/24 08:56:57;;;;;;;4.53;3.67;;;;;;;-145.79;98.89;76794.41;5244648;28;20361;-66
2023/10/24 08:59:37;;;;;;;5.25;4.43;;;;;;;-145.79;99.11;76807.13;5240210;28;20105;-66
2023/10/24 09:02:11;;;;;;;5.28;4.75;;;;;;;-145.79;99.30;76800.78;5233122;28;20020;-66
2023/10/24 09:04:42;;;;;;;5.45;4.95;;;;;;;-145.79;98.72;76805.00;5261130;28;20031;-66
2023/10/24 09:07:14;;;;;;;7.15;5.88;;;;;;;-145.79;99.31;76794.41;5254403;28;20025;-66
2023/10/24 09:09:45;;;;;;;7.20;6.47;;;;;;;-145.79;100.00;76779.59;5261419;28;20384;-65
2023/10/24 09:12:16;;;;;;;8.10;7.10;;;;;;;-145.79;99.68;76802.91;5269610;28;20073;-68
2023/10/24 09:14:48;;;;;;;8.40;7.47;;;;;;;-145.79;99.75;76796.53;5226238;28;20117;-66
2023/10/24 09:17:19;;;;;;;13.95;12.57;;;;;;;-145.79;100.00;76779.59;5240230;28;20034;-68
2023/10/24 09:19:55;;;;;;;8.43;7.63;;;;;;;-145.79;100.00;76777.47;5223763;28;20029;-67
2023/10/24 09:22:30;;;;;;;;;;;;;;;-145.79;100.00;76762.63;5270772;28;20512;-67
2023/10/24 09:25:03;;;;;;;7.57;6.88;;;;;;;-145.79;100.00;76737.19;5218135;28;19926;-67
2023/10/24 09:27:34;;;;;;;7.43;6.70;;;;;;;-145.79;99.93;76732.97;5254131;28;20034;-66
2023/10/24 09:30:11;;;;;;;7.88;7.07;;;;;;;-145.79;99.92;76741.44;5204165;28;20088;-67
2023/10/24 09:32:44;;;;;;;8.35;6.25;;;;;;;-145.79;99.91;76730.84;5219716;28;20038;-67
2023/10/24 09:35:15;;;;;;;7.80;7.10;;;;;;;-145.79;99.83;76728.72;5220526;28;20053;-66
2023/10/24 09:37:47;;;;;;;8.32;7.53;;;;;;;-145.79;99.06;76730.84;5208062;28;20029;-67
2023/10/24 09:40:19;;;;;;;9.52;8.05;;;;;;;-145.79;98.40;76737.19;5242533;28;20027;-67
2023/10/24 09:42:52;;;;;;;9.43;6.70;;;;;;;-145.79;98.78;76739.31;5208068;28;20029;-67
2023/10/24 09:45:23;;;;;;;7.03;5.47;;;;;;;-145.79;99.13;76732.97;5261676;28;20396;-66
2023/10/24 09:47:56;;;;;;;6.55;5.85;;;;;;;-145.79;100.00;76696.94;5230318;28;20014;-66
2023/10/24 09:50:28;;;;;;;7.32;5.93;;;;;;;-145.79;99.06;76711.75;5211565;28;20030;-66
2023/10/24 09:53:00;;;;;;;5.82;5.30;;;;;;;-145.79;98.55;76707.53;5253289;28;20033;-66
2023/10/24 09:55:34;;;;;;;6.10;5.50;;;;;;;-145.79;98.70;76707.53;5261130;28;20059;-66
2023/10/24 09:58:07;;;;;;;7.57;6.18;;;;;;;-145.79;98.80;76722.34;5270169;28;20463;-67
2023/10/24 10:00:39;;;;;;;5.70;4.90;;;;;;;-145.79;100.00;76690.56;5253571;28;20032;-67
2023/10/24 10:03:10;;;;;;;6.68;5.15;;;;;;;-145.79;99.17;76707.53;5253670;28;20026;-67
2023/10/24 10:05:44;;;;;;;5.07;4.50;;;;;;;-145.79;98.52;76713.88;5239882;28;20026;-67
2023/10/24 10:08:16;;;;;;;5.65;4.50;;;;;;;-145.79;98.28;76709.66;5230933;28;20052;-67
2023/10/24 10:10:51;;;;;;;4.57;4.18;;;;;;;-145.79;98.69;76711.75;5262205;28;20037;-67
2023/10/24 10:13:27;;;;;;;5.18;4.10;;;;;;;-145.79;99.05;76705.41;5248476;28;20031;-67
2023/10/24 10:16:05;;;;;;;6.03;4.47;;;;;;;-145.79;98.53;76709.66;5188579;28;20026;-67
2023/10/24 10:18:45;;;;;;;6.22;4.22;;;;;;;-145.79;98.82;76726.59;5207704;28;20437;-66
2023/10/24 10:21:28;;;;;;;5.05;4.20;;;;;;;-145.79;99.13;76724.47;5193557;28;20052;-67
2023/10/24 10:24:43;;;;;;;6.32;4.47;;;;;;;-145.79;99.63;76728.72;5230469;28;20049;-66
2023/10/24 10:27:39;;;;;;;5.22;4.13;;;;;;;-145.79;99.47;76728.72;5266940;28;20503;-66
2023/10/24 10:30:35;;;;;;;5.57;4.43;;;;;;;-145.79;99.71;76728.72;5213430;28;20026;-66
2023/10/24 10:33:14;;;;;;;6.30;3.97;;;;;;;-145.79;99.30;76728.72;5259053;28;20288;-65
2023/10/24 10:35:46;;;;;;;5.03;4.25;;;;;;;-145.79;99.55;76730.84;5268614;28;20028;-66
2023/10/24 10:38:36;;;;;;;6.50;4.30;;;;;;;-145.79;99.73;76732.97;5256855;28;20095;-67
2023/10/24 10:41:26;;;;;;;7.15;6.45;;;;;;;-145.79;100.00;76726.59;5210152;28;20061;-66
2023/10/24 10:43:59;;;;;;;10.85;9.85;;;;;;;-145.79;100.00;76724.47;5251706;28;20112;-66
2023/10/24 10:46:32;;;;;;;5.65;4.47;;;;;;;-145.79;100.00;76724.47;5265627;28;20024;-66
2023/10/24 10:49:06;;;;;;;6.63;5.57;;;;;;;-145.79;100.00;76724.47;5269073;28;20031;-66
2023/10/24 10:51:39;;;;;;;7.05;5.82;;;;;;;-145.79;100.00;76724.47;5255245;28;20034;-66
2023/10/24 10:54:44;;;;;;;5.30;4.55;;;;;;;-145.79;100.00;76722.34;5251963;28;20034;-66
2023/10/24 10:57:27;;;;;;;4.80;4.30;;;;;;;-145.79;100.00;76722.34;5240804;28;20031;-66
2023/10/24 11:00:07;;;;;;;7.13;4.43;;;;;;;-145.79;100.00;76730.84;5230821;28;20059;-66
2023/10/24 11:02:59;;;;;;;4.35;3.95;;;;;;;-145.79;100.00;76730.84;5260726;28;20043;-67
2023/10/24 11:05:36;;;;;;;7.18;5.03;;;;;;;-145.79;100.00;76737.19;5252871;28;20038;-66
2023/10/24 11:08:13;;;;;;;6.25;5.03;;;;;;;-145.79;100.00;76739.31;5268150;28;20051;-66
2023/10/24 11:10:54;;;;;;;5.38;4.50;;;;;;;-145.79;100.00;76741.44;5261430;28;20110;-66
2023/10/24 11:13:42;;;;;;;5.75;5.07;;;;;;;-145.79;100.00;76758.38;5214325;28;20484;-66
2023/10/24 11:16:15;;;;;;;4.85;4.45;;;;;;;-145.79;100.00;76771.09;5224131;28;20118;-66
2023/10/24 11:18:47;;;;;;;5.03;4.53;;;;;;;-145.79;100.00;76773.22;5265409;28;20031;-67
2023/10/24 11:21:18;;;;;;;4.95;4.50;;;;;;;-145.79;100.00;76775.34;5252275;28;20050;-66
2023/10/24 11:23:50;;;;;;;5.45;4.15;;;;;;;-145.79;100.00;76775.34;5247458;28;20098;-66
2023/10/24 11:26:22;;;;;;;4.65;3.85;;;;;;;-145.79;100.00;76771.09;5206122;28;20555;-66
2023/10/24 11:28:54;;;;;;;4.65;3.90;;;;;;;-145.79;100.00;76771.09;5245042;28;20032;-66
2023/10/24 11:31:26;;;;;;;4.35;3.90;;;;;;;-145.79;100.00;76775.34;5184899;28;20031;-67
2023/10/24 11:33:58;;;;;;;4.18;3.78;;;;;;;-145.79;100.00;76773.22;5233505;28;20371;-67
2023/10/24 11:36:29;;;;;;;4.13;3.40;;;;;;;-145.79;100.00;76781.69;5251537;28;20026;-67
2023/10/24 11:39:04;;;;;;;3.90;3.50;;;;;;;-145.79;100.00;76779.59;5243763;28;20469;-68
2023/10/24 11:41:35;;;;;;;5.28;4.05;;;;;;;-145.79;100.00;76794.41;5195940;28;20469;-68
2023/10/24 11:44:07;;;;;;;4.18;3.65;;;;;;;-145.79;100.00;76798.66;5252543;28;20075;-68
2023/10/24 11:46:42;;;;;;;3.60;3.30;;;;;;;-145.79;100.00;76771.09;5215243;28;20542;-68
2023/10/24 11:49:13;;;;;;;3.47;3.17;;;;;;;-145.79;100.00;76779.59;5209009;28;20370;-68
2023/10/24 11:51:45;;;;;;;5.03;3.00;;;;;;;-145.79;100.00;76779.59;5251459;28;20040;-69
2023/10/24 11:54:16;;;;;;;4.30;3.70;;;;;;;-145.79;100.00;76788.06;5250864;28;20480;-68
2023/10/24 11:56:48;;;;;;;3.92;3.50;;;;;;;-145.79;100.00;76769.00;5259941;28;20063;-68
2023/10/24 11:59:20;;;;;;;3.60;3.25;;;;;;;-145.79;100.00;76756.28;5245763;28;20032;-68
2023/10/24 12:01:51;;;;;;;3.92;3.53;;;;;;;-145.79;100.00;76760.50;5251655;28;20029;-67
2023/10/24 12:04:25;;;;;;;3.35;2.88;;;;;;;-145.79;100.00;76771.09;5233837;28;20124;-68
2023/10/24 12:07:10;;;;;;;3.85;3.35;;;;;;;-145.79;100.00;76754.16;5240448;28;20457;-68
2023/10/24 12:09:41;;;;;;;3.40;3.10;;;;;;;-145.79;100.00;76766.88;5260384;28;20054;-67
2023/10/24 12:12:15;;;;;;;4.70;3.40;;;;;;;-145.79;100.00;76756.28;5266865;28;20424;-68
2023/10/24 12:14:47;;;;;;;4.18;3.25;;;;;;;-145.79;100.00;76754.16;5206490;28;20022;-67
2023/10/24 12:17:18;;;;;;;3.28;2.88;;;;;;;-145.79;100.00;76749.91;5231097;28;20504;-67
2023/10/24 12:19:49;;;;;;;4.60;3.40;;;;;;;-145.79;100.00;76739.31;5238600;28;20036;-68
2023/10/24 12:22:21;;;;;;;4.07;3.47;;;;;;;-145.79;100.00;76732.97;5238241;28;20101;-67
2023/10/24 12:24:52;;;;;;;5.90;3.70;;;;;;;-145.79;100.00;76726.59;5222158;28;20026;-67
2023/10/24 12:27:23;;;;;;;4.22;3.05;;;;;;;-145.79;100.00;76728.72;5254801;28;20500;-67
2023/10/24 12:29:54;;;;;;;4.03;3.20;;;;;;;-145.79;100.00;76722.34;5252933;28;20470;-67
2023/10/24 12:32:26;;;;;;;8.40;2.80;;;;;;;-145.79;100.00;76732.97;5271934;28;20486;-66
2023/10/24 12:34:57;;;;;;;3.05;2.85;;;;;;;-145.79;100.00;76735.06;5208768;28;20023;-68
2023/10/24 12:37:29;;;;;;;6.47;4.43;;;;;;;-145.79;100.00;76730.84;5249001;28;20113;-68
2023/10/24 12:40:06;;;;;;;3.58;3.25;;;;;;;-145.79;100.00;76728.72;5215920;28;20037;-68
2023/10/24 12:42:37;;;;;;;4.18;2.90;;;;;;;-145.79;100.00;76703.28;5230697;28;20028;-67
2023/10/24 12:45:09;;;;;;;3.40;2.75;;;;;;;-145.79;100.00;76673.63;5228240;28;20027;-67
2023/10/24 12:47:40;;;;;;;4.15;3.65;;;;;;;-145.79;100.00;76648.19;5254507;28;20026;-67
2023/10/24 12:50:12;;;;;;;5.07;2.75;;;;;;;-145.79;100.00;76648.19;5253757;28;20422;-69
2023/10/24 12:52:43;;;;;;;3.90;2.85;;;;;;;-145.79;100.00;76633.34;5271329;28;20024;-68
2023/10/24 12:55:15;;;;;;;3.10;2.83;;;;;;;-145.79;100.00;76614.28;5226444;28;20054;-68
2023/10/24 12:57:46;;;;;;;3.30;2.55;;;;;;;-145.79;100.00;76610.03;5207383;28;20033;-68
2023/10/24 13:00:18;;;;;;;2.78;2.17;;;;;;;-145.79;100.00;76614.28;5254812;28;20018;-67
2023/10/24 13:02:51;;;;;;;2.55;2.30;;;;;;;-145.79;100.00;76607.91;5254916;28;20086;-67
2023/10/24 13:05:22;;;;;;;3.30;1.70;;;;;;;-145.79;99.75;76620.63;5199067;28;20428;-70
2023/10/24 13:07:54;;;;;;;3.00;2.13;;;;;;;-145.79;100.00;76605.81;5252843;28;20053;-68
2023/10/24 13:10:26;;;;;;;2.47;1.90;;;;;;;-145.79;99.18;76607.91;5253482;28;20078;-68
2023/10/24 13:12:57;;;;;;;3.13;1.90;;;;;;;-145.79;99.11;76595.22;5218176;28;20481;-70
2023/10/24 13:15:28;;;;;;;2.00;1.73;;;;;;;-145.79;99.93;76584.59;5204874;28;20033;-68
2023/10/24 13:18:00;;;;;;;2.45;1.90;;;;;;;-145.79;100.00;76578.25;5264860;28;20020;-68
2023/10/24 13:20:31;;;;;;;2.47;1.60;;;;;;;-145.79;98.97;76580.38;5270291;28;20164;-68
2023/10/24 13:23:02;;;;;;;2.20;1.67;;;;;;;-145.79;97.08;76580.38;5216771;28;20114;-68
2023/10/24 13:25:38;;;;;;;2.00;1.48;;;;;;;-145.79;97.63;76578.25;5240431;28;20154;-69
2023/10/24 13:28:10;;;;;;;1.52;1.42;;;;;;;-145.79;96.91;76593.09;5230447;28;20095;-68
2023/10/24 13:30:44;;;;;;;1.58;1.45;;;;;;;-145.79;96.65;76584.59;5219915;28;20134;-68
2023/10/24 13:33:15;;;;;;;2.92;2.03;;;;;;;-145.79;98.57;76571.91;5251283;28;20042;-68
2023/10/24 13:35:46;;;;;;;1.67;1.50;;;;;;;-145.79;96.78;76576.13;5208911;28;20033;-68
2023/10/24 13:38:20;;;;;;;1.88;1.38;;;;;;;-145.79;95.89;76569.78;5251909;28;20027;-68
2023/10/24 13:40:51;;;;;;;3.08;1.50;;;;;;;-145.79;94.30;76576.13;5242812;28;20022;-69
2023/10/24 13:43:22;;;;;;;1.65;1.35;;;;;;;-145.79;95.31;76580.38;5263814;28;20029;-69
2023/10/24 13:45:54;;;;;;;1.50;1.20;;;;;;;-145.79;95.17;76584.59;5235853;28;20030;-69
2023/10/24 13:48:25;;;;;;;2.60;1.52;;;;;;;-145.79;96.36;76586.72;5211708;28;20118;-69
2023/10/24 13:50:56;;;;;;;1.30;1.13;;;;;;;-145.79;94.83;76603.69;5253403;28;20109;-70
2023/10/24 13:53:28;;;;;;;3.03;1.50;;;;;;;-145.79;95.20;76597.31;5247632;28;20476;-69
2023/10/24 13:55:59;;;;;;;2.33;1.10;;;;;;;-145.79;96.60;76588.84;5269906;28;20024;-69
2023/10/24 13:58:31;;;;;;;1.15;1.05;;;;;;;-145.79;95.29;76580.38;5263564;28;20052;-69
2023/10/24 14:01:03;;;;;;;2.53;1.40;;;;;;;-145.79;96.47;76565.53;5253176;28;20026;-69
2023/10/24 14:03:35;;;;;;;1.80;1.17;;;;;;;-145.79;95.67;76559.19;5240992;28;20061;-68
2023/10/24 14:06:08;;;;;;;1.83;1.50;;;;;;;-145.79;96.05;76550.69;5229541;28;20050;-68
2023/10/24 14:08:39;;;;;;;1.10;1.00;;;;;;;-145.79;95.18;76552.81;5258066;28;20034;-67
2023/10/24 14:11:10;;;;;;;1.67;1.33;;;;;;;-145.79;94.74;76548.59;5269996;28;20039;-69
2023/10/24 14:13:42;;;;;;;1.73;1.10;;;;;;;-145.79;94.66;76559.19;5221460;28;20026;-67
2023/10/24 14:16:13;;;;;;;2.03;1.20;;;;;;;-145.79;95.57;76550.69;5202764;28;20064;-67
2023/10/24 14:18:44;;;;;;;1.65;1.15;;;;;;;-145.79;95.99;76538.00;5256568;28;20108;-67
2023/10/24 14:21:16;;;;;;;1.60;1.13;;;;;;;-145.79;95.70;76518.91;5237763;28;20135;-67
2023/10/24 14:23:47;;;;;;;2.20;2.00;;;;;;;-145.79;94.40;76529.50;5252087;28;20511;-67
2023/10/24 14:26:18;;;;;;;1.30;1.20;;;;;;;-145.79;94.60;76501.97;5234181;28;20037;-67
2023/10/24 14:28:50;;;;;;;3.22;1.25;;;;;;;-145.79;94.77;76512.56;5210004;28;20099;-67
2023/10/24 14:31:21;;;;;;;2.05;1.58;;;;;;;-145.79;93.52;76521.03;5227983;28;20476;-67
2023/10/24 14:33:54;;;;;;;1.55;1.10;;;;;;;-145.79;94.16;76508.31;5257952;28;20041;-67
2023/10/24 14:36:26;;;;;;;3.72;1.73;;;;;;;-145.79;93.51;76514.69;5200958;28;20428;-68
2023/10/24 14:38:57;;;;;;;1.35;1.20;;;;;;;-145.79;93.73;76512.56;5219085;28;20027;-67
2023/10/24 14:41:28;;;;;;;4.03;2.47;;;;;;;-145.79;93.26;76493.50;5227888;28;20052;-68
2023/10/24 14:44:00;;;;;;;2.30;1.52;;;;;;;-145.79;93.06;76487.13;5204298;28;20101;-68
2023/10/24 14:46:31;;;;;;;1.83;1.23;;;;;;;-145.79;92.82;76468.06;5221231;28;20021;-67
2023/10/24 14:49:03;;;;;;;1.90;1.15;;;;;;;-145.79;92.16;76474.41;5251164;28;20389;-68
2023/10/24 14:51:34;;;;;;;1.92;1.27;;;;;;;-145.79;91.50;76485.00;5265463;28;20475;-66
2023/10/24 14:54:06;;;;;;;1.70;1.50;;;;;;;-145.79;92.51;76487.13;5236436;28;20045;-67
2023/10/24 14:56:37;;;;;;;2.15;1.63;;;;;;;-145.79;92.74;76482.88;5226825;28;20030;-67
2023/10/24 14:59:09;;;;;;;1.88;1.42;;;;;;;-145.79;92.74;76482.88;5235006;28;20484;-69
2023/10/24 15:01:40;;;;;;;2.38;1.63;;;;;;;-145.79;92.41;76485.00;5235771;28;20041;-68
2023/10/24 15:04:11;;;;;;;16.60;15.02;;;;;;;-145.79;92.79;76487.13;5181885;28;20061;-66
2023/10/24 15:06:43;;;;;;;13.57;12.23;;;;;;;-145.79;92.58;76493.50;5190409;28;20088;-68
2023/10/24 15:09:19;;;;;;;3.47;2.50;;;;;;;-145.79;92.46;76506.19;5233604;28;20043;-68
2023/10/24 15:11:50;;;;;;;;;;;;;;;-145.79;93.21;76495.59;5195882;28;20469;-67
2023/10/24 15:14:22;;;;;;;4.03;2.00;;;;;;;-145.79;93.92;76485.00;5192229;28;19917;-66
2023/10/24 15:16:53;;;;;;;2.53;1.77;;;;;;;-145.79;93.57;76512.56;5242266;28;20060;-67
2023/10/24 15:19:24;;;;;;;3.65;1.60;;;;;;;-145.79;94.33;76514.69;5251201;28;20105;-67
2023/10/24 15:21:55;;;;;;;2.80;1.95;;;;;;;-145.79;94.46;76514.69;5259922;28;20067;-68
2023/10/24 15:24:28;;;;;;;3.20;2.20;;;;;;;-145.79;95.03;76518.91;5268080;28;20500;-68
2023/10/24 15:26:59;;;;;;;2.90;1.98;;;;;;;-145.79;94.95;76525.28;5204515;28;20022;-69
2023/10/24 15:29:36;;;;;;;2.72;1.77;;;;;;;-145.79;95.39;76521.03;5224025;28;20356;-66
2023/10/24 15:32:10;;;;;;;2.00;1.80;;;;;;;-145.79;96.55;76525.28;5248254;28;20097;-68
2023/10/24 15:34:42;;;;;;;3.58;3.25;;;;;;;-145.79;97.54;76516.78;5252626;28;20536;-67
2023/10/24 15:37:13;;;;;;;3.03;2.35;;;;;;;-145.79;99.50;76538.00;5286718;28;20107;-68
2023/10/24 15:39:46;;;;;;;4.53;2.65;;;;;;;-145.79;100.00;76542.22;5250779;28;20022;-69
2023/10/24 15:42:18;;;;;;;3.90;2.40;;;;;;;-145.79;100.00;76571.91;5260794;28;20029;-70
2023/10/24 15:44:56;;;;;;;3.97;1.65;;;;;;;-145.79;98.84;76571.91;5232376;28;20022;-70
2023/10/24 15:47:27;;;;;;;4.20;2.13;;;;;;;-145.79;99.68;76567.66;5216228;28;20026;-69
2023/10/24 15:49:59;;;;;;;2.97;1.60;;;;;;;-145.79;99.37;76580.38;5255910;28;20026;-69
2023/10/24 15:52:30;;;;;;;3.78;2.33;;;;;;;-145.79;100.00;76576.13;5266262;28;20068;-70
2023/10/24 15:55:03;;;;;;;4.10;3.30;;;;;;;-145.79;100.00;76588.84;5272783;28;20024;-70
2023/10/24 15:57:35;;;;;;;3.22;2.50;;;;;;;-145.79;100.00;76601.56;5261585;28;20423;-70
2023/10/24 16:00:07;;;;;;;7.47;2.40;;;;;;;-145.79;100.00;76605.81;5254504;28;20062;-69
2023/10/24 16:02:39;;;;;;;4.57;3.28;;;;;;;-145.79;100.00;76597.31;5250866;28;20060;-70
2023/10/24 16:05:11;;;;;;;4.78;2.40;;;;;;;-145.79;100.00;76588.84;5227446;28;20057;-69
2023/10/24 16:07:42;;;;;;;4.60;3.35;;;;;;;-145.79;100.00;76582.50;5264267;28;20087;-70
2023/10/24 16:10:13;;;;;;;2.97;2.30;;;;;;;-145.79;100.00;76571.91;5272460;28;20043;-69
2023/10/24 16:12:45;;;;;;;4.03;2.13;;;;;;;-145.79;100.00;76574.00;5231902;28;20050;-70
2023/10/24 16:15:16;;;;;;;2.22;1.70;;;;;;;-145.79;100.00;76590.97;5253921;28;20113;-69
2023/10/24 16:17:47;;;;;;;4.45;1.90;;;;;;;-145.79;99.75;76599.44;5261466;28;20488;-69
2023/10/24 16:20:18;;;;;;;5.20;2.20;;;;;;;-145.79;100.00;76610.03;5241231;28;20036;-69
2023/10/24 16:22:50;;;;;;;4.13;2.08;;;;;;;-145.79;99.60;76605.81;5250833;28;20048;-69
2023/10/24 16:25:21;;;;;;;6.30;3.47;;;;;;;-145.79;99.65;76614.28;5255417;28;20369;-70
2023/10/24 16:27:55;;;;;;;4.57;2.40;;;;;;;-145.79;99.97;76616.41;5242352;28;20140;-70
2023/10/24 16:30:26;;;;;;;2.75;2.10;;;;;;;-145.79;99.91;76624.88;5272247;28;20032;-69
2023/10/24 16:32:59;;;;;;;4.28;3.05;;;;;;;-145.79;99.81;76622.75;5267044;28;20020;-69
2023/10/24 16:35:30;;;;;;;3.83;2.03;;;;;;;-145.79;99.63;76627.00;5247201;28;20030;-70
2023/10/24 16:38:02;;;;;;;4.60;2.28;;;;;;;-145.79;99.08;76637.59;5187986;28;20019;-73
2023/10/24 16:40:33;;;;;;;5.25;2.63;;;;;;;-145.79;98.89;76641.84;5254833;28;20101;-73
2023/10/24 16:43:05;;;;;;;7.07;2.17;;;;;;;-145.79;98.58;76654.53;5255929;28;20120;-73
2023/10/24 16:45:36;;;;;;;6.53;2.40;;;;;;;-145.79;98.57;76660.91;5245888;28;20106;-73
2023/10/24 16:48:08;;;;;;;5.20;2.20;;;;;;;-145.79;98.40;76660.91;5203909;28;20030;-72
2023/10/24 16:50:39;;;;;;;3.33;2.30;;;;;;;-145.79;98.84;76667.25;5195833;28;20422;-73
2023/10/24 16:53:11;;;;;;;5.13;2.47;;;;;;;-145.79;98.70;76669.38;5201800;28;20067;-73
